createdAt,value
2023-04-11T00:02:14.497Z,8.56
2023-04-11T00:04:43.457Z,8.62
2023-04-11T00:07:11.876Z,8.63
2023-04-11T00:09:41.324Z,8.62
2023-04-11T00:12:10.097Z,8.58
2023-04-11T00:14:38.309Z,8.51
2023-04-11T00:17:09.660Z,8.50
2023-04-11T00:19:38.746Z,8.55
2023-04-11T00:22:11.552Z,8.56
2023-04-11T00:24:40.686Z,8.53
2023-04-11T00:27:08.892Z,8.47
2023-04-11T00:29:38.042Z,8.42
2023-04-11T00:32:06.675Z,8.44
2023-04-11T00:34:34.808Z,8.47
2023-04-11T00:37:03.158Z,8.46
2023-04-11T00:39:34.245Z,8.43
2023-04-11T00:42:06.855Z,8.40
2023-04-11T00:44:36.218Z,8.37
2023-04-11T00:47:06.720Z,8.36
2023-04-11T00:49:34.940Z,8.38
2023-04-11T00:52:03.551Z,8.35
2023-04-11T00:54:31.747Z,8.31
2023-04-11T00:57:03.998Z,8.27
2023-04-11T00:59:32.525Z,8.22
2023-04-11T01:02:01.663Z,8.23
2023-04-11T01:04:31.216Z,8.26
2023-04-11T01:07:04.366Z,8.29
2023-04-11T01:09:33.393Z,8.28
2023-04-11T01:12:02.996Z,8.23
2023-04-11T01:14:31.618Z,8.17
2023-04-11T01:17:02.289Z,8.15
2023-04-11T01:19:31.086Z,8.16
2023-04-11T01:22:01.200Z,8.14
2023-04-11T01:24:29.901Z,8.07
2023-04-11T01:27:00.190Z,8.00
2023-04-11T01:29:28.539Z,7.94
2023-04-11T01:31:56.632Z,7.91
2023-04-11T01:34:25.210Z,7.93
2023-04-11T01:36:53.360Z,7.92
2023-04-11T01:39:21.485Z,7.85
2023-04-11T01:41:49.864Z,7.78
2023-04-11T01:44:18.528Z,7.72
2023-04-11T01:46:49.071Z,7.69
2023-04-11T01:49:19.017Z,7.69
2023-04-11T01:51:49.518Z,7.65
2023-04-11T01:54:17.668Z,7.60
2023-04-11T01:56:45.961Z,7.55
2023-04-11T01:59:14.249Z,7.52
2023-04-11T02:01:43.158Z,7.56
2023-04-11T02:04:11.619Z,7.62
2023-04-11T02:06:42.593Z,7.64
2023-04-11T02:09:10.679Z,7.62
2023-04-11T02:11:39.235Z,7.56
2023-04-11T02:14:09.920Z,7.53
2023-04-11T02:16:57.037Z,7.56
2023-04-11T02:19:26.237Z,7.63
2023-04-11T02:21:54.920Z,7.61
2023-04-11T02:24:23.522Z,7.57
2023-04-11T02:26:52.106Z,7.54
2023-04-11T02:29:20.293Z,7.53
2023-04-11T02:31:51.341Z,7.53
2023-04-11T02:34:19.742Z,7.53
2023-04-11T02:36:51.307Z,7.47
2023-04-11T02:39:21.800Z,7.41
2023-04-11T02:41:50.111Z,7.40
2023-04-11T02:44:19.868Z,7.40
2023-04-11T02:46:48.241Z,7.47
2023-04-11T02:49:17.029Z,7.56
2023-04-11T02:51:50.097Z,7.59
2023-04-11T02:54:18.540Z,7.56
2023-04-11T02:56:48.236Z,7.53
2023-04-11T02:59:16.644Z,7.49
2023-04-11T03:01:45.312Z,7.51
2023-04-11T03:04:13.616Z,7.57
2023-04-11T03:06:52.155Z,7.59
2023-04-11T03:09:21.218Z,7.57
2023-04-11T03:11:50.348Z,7.52
2023-04-11T03:14:19.262Z,7.48
2023-04-11T03:16:49.027Z,7.51
2023-04-11T03:19:19.017Z,7.54
2023-04-11T03:21:47.206Z,7.52
2023-04-11T03:24:17.922Z,7.48
2023-04-11T03:26:46.176Z,7.40
2023-04-11T03:29:16.679Z,7.32
2023-04-11T03:31:59.202Z,7.23
2023-04-11T03:34:28.306Z,7.22
2023-04-11T03:36:58.813Z,7.23
2023-04-11T03:39:27.615Z,7.19
2023-04-11T03:41:58.630Z,7.10
2023-04-11T03:44:28.028Z,7.03
2023-04-11T03:46:57.122Z,6.95
2023-04-11T03:49:27.590Z,6.94
2023-04-11T03:51:57.019Z,6.96
2023-04-11T03:54:25.532Z,6.95
2023-04-11T03:56:53.883Z,6.90
2023-04-11T03:59:30.028Z,6.80
2023-04-11T04:02:01.974Z,6.71
2023-04-11T04:04:33.476Z,6.75
2023-04-11T04:07:27.282Z,6.86
2023-04-11T04:10:00.682Z,6.89
2023-04-11T04:12:29.011Z,6.88
2023-04-11T04:15:29.462Z,6.86
2023-04-11T04:17:59.894Z,6.84
2023-04-11T04:20:42.698Z,6.87
2023-04-11T04:23:14.324Z,6.92
2023-04-11T04:25:54.324Z,6.93
2023-04-11T04:28:26.211Z,6.85
2023-04-11T04:30:58.183Z,6.70
2023-04-11T04:33:33.230Z,6.50
2023-04-11T04:36:05.187Z,6.38
2023-04-11T04:38:38.611Z,6.37
2023-04-11T04:41:15.244Z,6.37
2023-04-11T04:43:46.054Z,6.31
2023-04-11T04:46:31.970Z,6.26
2023-04-11T04:49:02.469Z,6.29
2023-04-11T04:51:31.075Z,6.33
2023-04-11T04:54:06.250Z,6.33
2023-04-11T04:56:36.034Z,6.30
2023-04-11T04:59:05.042Z,6.30
2023-04-11T05:01:35.350Z,6.30
2023-04-11T05:04:05.987Z,6.37
2023-04-11T05:06:48.092Z,6.47
2023-04-11T05:09:16.998Z,6.53
2023-04-11T05:11:46.916Z,6.56
2023-04-11T05:14:16.615Z,6.58
2023-04-11T05:16:47.764Z,6.68
2023-04-11T05:19:24.683Z,6.80
2023-04-11T05:21:54.379Z,6.85
2023-04-11T05:24:27.719Z,6.82
2023-04-11T05:26:56.649Z,6.71
2023-04-11T05:29:25.135Z,6.61
2023-04-11T05:31:58.749Z,6.49
2023-04-11T05:34:30.625Z,6.31
2023-04-11T05:36:58.948Z,6.17
2023-04-11T05:39:30.719Z,6.07
2023-04-11T05:41:59.055Z,6.05
2023-04-11T05:44:28.172Z,6.04
2023-04-11T05:49:33.391Z,6.17
2023-04-11T05:52:02.318Z,6.23
2023-04-11T05:54:35.035Z,6.31
2023-04-11T05:57:03.674Z,6.31
2023-04-11T05:59:33.188Z,6.33
2023-04-11T06:02:06.424Z,6.31
2023-04-11T06:04:35.113Z,6.30
2023-04-11T06:07:04.661Z,6.35
2023-04-11T06:09:34.206Z,6.36
2023-04-11T06:12:05.363Z,6.36
2023-04-11T06:14:34.822Z,6.32
2023-04-11T06:17:04.102Z,6.28
2023-04-11T06:19:32.844Z,6.27
2023-04-11T06:22:02.253Z,6.35
2023-04-11T06:24:40.962Z,6.47
2023-04-11T06:27:14.203Z,6.57
2023-04-11T06:29:43.838Z,6.61
2023-04-11T06:32:12.327Z,6.60
2023-04-11T06:34:45.648Z,6.62
2023-04-11T06:37:15.267Z,6.71
2023-04-11T06:39:46.198Z,6.76
2023-04-11T06:42:18.408Z,6.82
2023-04-11T06:44:47.464Z,6.87
2023-04-11T06:47:16.121Z,6.95
2023-04-11T06:49:46.228Z,7.08
2023-04-11T06:52:15.818Z,7.23
2023-04-11T06:54:44.047Z,7.32
2023-04-11T06:57:14.170Z,7.35
2023-04-11T06:59:51.252Z,7.34
2023-04-11T07:02:22.073Z,7.38
2023-04-11T07:04:52.554Z,7.48
2023-04-11T07:07:27.685Z,7.57
2023-04-11T07:09:56.232Z,7.62
2023-04-11T07:12:24.668Z,7.63
2023-04-11T07:14:54.651Z,7.71
2023-04-11T07:17:24.770Z,7.77
2023-04-11T07:19:53.404Z,7.83
2023-04-11T07:22:21.918Z,7.86
2023-04-11T07:24:53.029Z,7.87
2023-04-11T07:27:23.508Z,7.94
2023-04-11T07:29:52.543Z,8.06
2023-04-11T07:32:20.951Z,8.14
2023-04-11T07:34:49.023Z,8.18
2023-04-11T07:37:18.266Z,8.24
2023-04-11T07:39:46.671Z,8.35
2023-04-11T07:42:17.524Z,8.52
2023-04-11T07:44:46.136Z,8.66
2023-04-11T07:47:19.124Z,8.73
2023-04-11T07:49:48.266Z,8.76
2023-04-11T07:52:16.598Z,8.80
2023-04-11T07:54:46.661Z,8.91
2023-04-11T07:57:15.090Z,9.08
2023-04-11T07:59:46.432Z,9.18
2023-04-11T08:02:17.438Z,9.26
2023-04-11T08:04:45.918Z,9.34
2023-04-11T08:07:19.272Z,9.49
2023-04-11T08:09:50.473Z,9.62
2023-04-11T08:12:19.016Z,9.64
2023-04-11T08:14:48.285Z,9.64
2023-04-11T08:17:27.133Z,9.64
2023-04-11T08:19:57.901Z,9.73
2023-04-11T08:22:26.747Z,9.92
2023-04-11T08:24:54.922Z,10.18
2023-04-11T08:27:23.333Z,10.33
2023-04-11T08:29:51.678Z,10.35
2023-04-11T08:32:20.253Z,10.28
2023-04-11T08:34:48.557Z,10.27
2023-04-11T08:37:16.787Z,10.33
2023-04-11T08:39:47.638Z,10.54
2023-04-11T08:42:32.340Z,10.84
2023-04-11T08:45:02.605Z,11.14
2023-04-11T08:47:30.997Z,11.33
2023-04-11T08:49:59.499Z,11.48
2023-04-11T08:52:27.634Z,11.60
2023-04-11T08:54:56.013Z,11.64
2023-04-11T08:57:28.744Z,11.57
2023-04-11T09:00:08.146Z,11.50
2023-04-11T09:03:00.905Z,11.45
2023-04-11T09:05:34.501Z,11.20
2023-04-11T09:08:06.928Z,11.10
2023-04-11T09:10:35.879Z,11.18
2023-04-11T09:13:24.118Z,11.33
2023-04-11T09:16:09.542Z,11.46
2023-04-11T09:18:42.004Z,11.59
2023-04-11T09:21:14.487Z,11.69
2023-04-11T09:23:42.754Z,11.70
2023-04-11T09:26:12.672Z,11.60
2023-04-11T09:28:43.059Z,11.42
2023-04-11T09:31:14.352Z,11.29
2023-04-11T09:33:56.050Z,11.27
2023-04-11T09:36:25.300Z,11.28
2023-04-11T09:38:54.136Z,11.22
2023-04-11T09:41:34.756Z,11.23
2023-04-11T09:44:02.921Z,11.31
2023-04-11T09:46:31.688Z,11.30
2023-04-11T09:49:01.976Z,11.30
2023-04-11T09:51:35.598Z,11.34
2023-04-11T09:54:05.409Z,11.40
2023-04-11T09:56:34.777Z,11.41
2023-04-11T09:59:05.845Z,11.45
2023-04-11T10:01:35.932Z,11.49
2023-04-11T10:04:05.876Z,11.52
2023-04-11T10:06:45.475Z,11.56
2023-04-11T10:09:14.270Z,11.66
2023-04-11T10:11:44.651Z,11.82
2023-04-11T10:14:39.568Z,11.98
2023-04-11T10:17:22.124Z,12.15
2023-04-11T10:19:57.925Z,12.28
2023-04-11T10:22:41.491Z,12.29
2023-04-11T10:25:22.346Z,12.26
2023-04-11T10:28:04.756Z,12.29
2023-04-11T10:30:40.463Z,12.31
2023-04-11T10:33:12.682Z,12.31
2023-04-11T10:35:58.038Z,12.33
2023-04-11T10:38:46.218Z,12.38
2023-04-11T10:41:35.769Z,12.52
2023-04-11T10:44:18.589Z,12.66
2023-04-11T10:46:51.657Z,12.80
2023-04-11T10:49:32.312Z,12.88
2023-04-11T10:52:19.015Z,12.91
2023-04-11T10:54:51.981Z,13.04
2023-04-11T10:57:27.366Z,13.10
2023-04-11T10:59:58.776Z,13.09
2023-04-11T11:02:36.585Z,12.99
2023-04-11T11:05:16.741Z,12.87
2023-04-11T11:07:48.451Z,12.86
2023-04-11T11:10:17.901Z,12.94
2023-04-11T11:12:54.161Z,13.11
2023-04-11T11:15:22.255Z,13.38
2023-04-11T11:17:51.585Z,13.67
2023-04-11T11:20:20.237Z,13.89
2023-04-11T11:22:59.194Z,14.07
2023-04-11T11:25:27.553Z,14.24
2023-04-11T11:28:04.656Z,14.30
2023-04-11T11:30:34.021Z,14.21
2023-04-11T11:33:19.877Z,14.14
2023-04-11T11:35:57.189Z,14.11
2023-04-11T11:38:26.880Z,14.01
2023-04-11T11:40:55.304Z,13.92
2023-04-11T11:43:27.549Z,13.84
2023-04-11T11:46:15.002Z,13.78
2023-04-11T11:48:57.561Z,13.81
2023-04-11T11:51:26.768Z,13.87
2023-04-11T11:54:05.742Z,13.95
2023-04-11T11:56:33.944Z,14.03
2023-04-11T11:59:04.896Z,14.10
2023-04-11T12:01:39.063Z,14.13
2023-04-11T12:04:07.838Z,14.08
2023-04-11T12:06:37.678Z,14.04
2023-04-11T12:09:12.364Z,13.99
2023-04-11T12:11:43.166Z,13.97
2023-04-11T12:14:13.092Z,13.98
2023-04-11T12:16:41.405Z,14.03
2023-04-11T12:19:10.538Z,14.03
2023-04-11T12:21:39.123Z,13.99
2023-04-11T12:24:14.684Z,13.90
2023-04-11T12:27:05.656Z,13.92
2023-04-11T12:29:37.232Z,14.00
2023-04-11T12:32:13.265Z,14.05
2023-04-11T12:34:43.581Z,14.00
2023-04-11T12:37:11.634Z,13.94
2023-04-11T12:39:41.649Z,13.90
2023-04-11T12:42:11.579Z,13.86
2023-04-11T12:44:46.949Z,13.88
2023-04-11T12:47:15.267Z,13.93
2023-04-11T12:49:44.991Z,14.01
2023-04-11T12:52:14.108Z,14.09
2023-04-11T12:54:42.728Z,14.15
2023-04-11T12:57:17.091Z,14.19
2023-04-11T12:59:46.861Z,14.21
2023-04-11T13:02:14.976Z,14.21
2023-04-11T13:04:43.470Z,14.19
2023-04-11T13:07:12.619Z,14.17
2023-04-11T13:09:40.994Z,14.18
2023-04-11T13:12:11.053Z,14.18
2023-04-11T13:14:43.083Z,14.18
2023-04-11T13:17:12.110Z,14.18
2023-04-11T13:19:40.842Z,14.19
2023-04-11T13:22:09.056Z,14.18
2023-04-11T13:24:38.531Z,14.19
2023-04-11T13:27:06.630Z,14.22
2023-04-11T13:29:36.068Z,14.26
2023-04-11T13:32:04.471Z,14.29
2023-04-11T13:34:34.202Z,14.35
2023-04-11T13:37:02.680Z,14.40
2023-04-11T13:39:31.264Z,14.41
2023-04-11T13:42:00.021Z,14.42
2023-04-11T13:44:28.720Z,14.44
2023-04-11T13:46:56.852Z,14.44
2023-04-11T13:49:24.936Z,14.40
2023-04-11T13:51:53.293Z,14.34
2023-04-11T13:54:27.707Z,14.29
2023-04-11T13:56:56.796Z,14.23
2023-04-11T13:59:24.910Z,14.18
2023-04-11T14:01:53.705Z,14.15
2023-04-11T14:04:22.844Z,14.10
2023-04-11T14:06:53.968Z,14.06
2023-04-11T14:09:22.537Z,14.03
2023-04-11T14:11:54.993Z,13.97
2023-04-11T14:14:24.468Z,13.95
2023-04-11T14:16:53.649Z,13.92
2023-04-11T14:19:24.791Z,13.92
2023-04-11T14:21:54.279Z,13.92
2023-04-11T14:24:22.726Z,13.90
2023-04-11T14:26:54.063Z,13.92
2023-04-11T14:29:23.573Z,13.95
2023-04-11T14:31:57.634Z,13.96
2023-04-11T14:34:28.932Z,13.98
2023-04-11T14:36:58.352Z,14.00
2023-04-11T14:39:40.101Z,14.02
2023-04-11T14:42:09.980Z,14.00
2023-04-11T14:44:39.455Z,14.00
2023-04-11T14:47:07.966Z,14.00
2023-04-11T14:49:36.308Z,14.02
2023-04-11T14:52:07.464Z,14.06
2023-04-11T14:54:37.061Z,14.07
2023-04-11T14:57:05.433Z,14.05
2023-04-11T14:59:35.304Z,13.99
2023-04-11T15:02:05.375Z,13.94
2023-04-11T15:04:35.212Z,13.90
2023-04-11T15:07:06.196Z,13.88
2023-04-11T15:09:42.924Z,13.85
2023-04-11T15:12:13.447Z,13.82
2023-04-11T15:14:47.298Z,13.76
2023-04-11T15:17:17.791Z,13.72
2023-04-11T15:19:46.506Z,13.70
2023-04-11T15:22:19.961Z,13.68
2023-04-11T15:24:50.965Z,13.65
2023-04-11T15:27:22.677Z,13.63
2023-04-11T15:33:18.718Z,13.64
2023-04-11T15:35:50.365Z,13.62
2023-04-11T15:38:19.116Z,13.58
2023-04-11T15:40:51.486Z,13.54
2023-04-11T15:43:21.980Z,13.48
2023-04-11T15:45:52.659Z,13.44
2023-04-11T15:48:24.194Z,13.40
2023-04-11T15:50:53.019Z,13.36
2023-04-11T15:53:21.765Z,13.33
2023-04-11T15:55:50.659Z,13.29
2023-04-11T15:58:19.647Z,13.25
2023-04-11T16:00:55.002Z,13.21
2023-04-11T16:03:32.447Z,13.17
2023-04-11T16:06:01.848Z,13.15
2023-04-11T16:08:31.187Z,13.12
2023-04-11T16:11:04.042Z,13.10
2023-04-11T16:13:35.645Z,13.08
2023-04-11T16:16:04.198Z,13.06
2023-04-11T16:18:38.544Z,13.02
2023-04-11T16:21:15.434Z,12.99
2023-04-11T16:23:50.848Z,12.97
2023-04-11T16:26:19.026Z,12.94
2023-04-11T16:28:48.830Z,12.91
2023-04-11T16:31:22.044Z,12.89
2023-04-11T16:33:53.626Z,12.86
2023-04-11T16:36:22.553Z,12.84
2023-04-11T16:38:51.083Z,12.82
2023-04-11T16:41:19.227Z,12.80
2023-04-11T16:43:49.137Z,12.78
2023-04-11T16:46:19.076Z,12.76
2023-04-11T16:48:47.678Z,12.74
2023-04-11T16:51:18.574Z,12.73
2023-04-11T16:53:47.719Z,12.71
2023-04-11T16:56:20.155Z,12.68
2023-04-11T16:58:48.602Z,12.66
2023-04-11T17:01:17.244Z,12.64
2023-04-11T17:03:47.221Z,12.61
2023-04-11T17:06:16.782Z,12.59
2023-04-11T17:08:45.596Z,12.56
2023-04-11T17:11:13.792Z,12.53
2023-04-11T17:13:45.314Z,12.52
2023-04-11T17:16:13.807Z,12.49
2023-04-11T17:18:43.464Z,12.46
2023-04-11T17:21:18.850Z,12.42
2023-04-11T17:23:48.674Z,12.38
2023-04-11T17:26:21.148Z,12.35
2023-04-11T17:28:53.839Z,12.25
2023-04-11T17:31:22.417Z,12.15
2023-04-11T17:33:52.725Z,11.96
2023-04-11T17:36:21.684Z,11.68
2023-04-11T17:38:54.434Z,11.40
2023-04-11T17:41:23.098Z,11.16
2023-04-11T17:43:51.338Z,10.96
2023-04-11T17:46:20.606Z,10.83
2023-04-11T17:48:49.315Z,10.69
2023-04-11T17:51:17.592Z,10.59
2023-04-11T17:53:46.478Z,10.59
2023-04-11T17:56:15.861Z,10.57
2023-04-11T17:58:45.420Z,10.53
2023-04-11T18:01:14.409Z,10.49
2023-04-11T18:03:44.237Z,10.43
2023-04-11T18:07:18.209Z,10.42
2023-04-11T18:09:47.525Z,10.32
2023-04-11T18:12:15.875Z,10.22
2023-04-11T18:14:44.060Z,10.15
2023-04-11T18:17:12.234Z,10.12
2023-04-11T18:19:40.912Z,10.08
2023-04-11T18:22:11.649Z,10.04
2023-04-11T18:24:41.748Z,9.97
2023-04-11T18:27:10.690Z,9.94
2023-04-11T18:29:39.682Z,9.95
2023-04-11T18:32:08.031Z,9.99
2023-04-11T18:34:36.379Z,9.98
2023-04-11T18:37:04.787Z,9.95
2023-04-11T18:39:33.486Z,9.90
2023-04-11T18:42:03.897Z,9.86
2023-04-11T18:44:32.499Z,9.86
2023-04-11T18:47:05.467Z,9.89
2023-04-11T18:49:39.503Z,9.85
2023-04-11T18:52:08.347Z,9.81
2023-04-11T18:54:42.482Z,9.76
2023-04-11T18:57:12.139Z,9.78
2023-04-11T18:59:43.639Z,9.82
2023-04-11T19:02:17.346Z,9.85
2023-04-11T19:04:49.505Z,9.83
2023-04-11T19:07:18.031Z,9.79
2023-04-11T19:09:49.602Z,9.73
2023-04-11T19:12:19.394Z,9.76
2023-04-11T19:14:48.149Z,9.83
2023-04-11T19:17:16.602Z,9.88
2023-04-11T19:19:44.658Z,9.90
2023-04-11T19:22:12.908Z,9.91
2023-04-11T19:24:41.734Z,9.89
2023-04-11T19:27:10.095Z,9.89
2023-04-11T19:29:38.280Z,9.91
2023-04-11T19:32:06.470Z,9.94
2023-04-11T19:34:35.163Z,9.97
2023-04-11T19:37:03.440Z,9.98
2023-04-11T19:39:38.113Z,9.97
2023-04-11T19:42:08.803Z,9.99
2023-04-11T19:44:38.661Z,10.04
2023-04-11T19:47:06.990Z,10.07
2023-04-11T19:49:35.812Z,10.06
